sensor_id;sensor_type;location;lat;lon;timestamp;P1;durP1;ratioP1;P2;durP2;ratioP2
31210;SDS011;17836;50.948;3.946;2023-02-01T00:01:19;23.75;;;6.78;;
31210;SDS011;17836;50.948;3.946;2023-02-01T00:03:45;27.83;;;6.20;;
31210;SDS011;17836;50.948;3.946;2023-02-01T00:06:12;22.85;;;6.35;;
31210;SDS011;17836;50.948;3.946;2023-02-01T00:08:38;26.33;;;7.50;;
31210;SDS011;17836;50.948;3.946;2023-02-01T00:11:04;22.80;;;5.90;;
31210;SDS011;17836;50.948;3.946;2023-02-01T00:13:30;16.83;;;5.05;;
31210;SDS011;17836;50.948;3.946;2023-02-01T00:16:05;23.00;;;5.45;;
31210;SDS011;17836;50.948;3.946;2023-02-01T00:18:31;24.02;;;6.28;;
31210;SDS011;17836;50.948;3.946;2023-02-01T00:20:57;20.85;;;5.38;;
31210;SDS011;17836;50.948;3.946;2023-02-01T00:23:22;22.00;;;5.65;;
31210;SDS011;17836;50.948;3.946;2023-02-01T00:25:47;16.00;;;4.00;;
31210;SDS011;17836;50.948;3.946;2023-02-01T00:28:13;19.15;;;4.18;;
31210;SDS011;17836;50.948;3.946;2023-02-01T00:30:38;18.40;;;4.38;;
31210;SDS011;17836;50.948;3.946;2023-02-01T00:33:04;15.75;;;4.72;;
31210;SDS011;17836;50.948;3.946;2023-02-01T00:35:29;16.95;;;4.18;;
31210;SDS011;17836;50.948;3.946;2023-02-01T00:37:55;19.33;;;4.37;;
31210;SDS011;17836;50.948;3.946;2023-02-01T00:40:20;18.00;;;4.57;;
31210;SDS011;17836;50.948;3.946;2023-02-01T00:42:45;17.50;;;4.63;;
31210;SDS011;17836;50.948;3.946;2023-02-01T00:45:11;18.25;;;5.13;;
31210;SDS011;17836;50.948;3.946;2023-02-01T00:47:36;16.95;;;5.28;;
31210;SDS011;17836;50.948;3.946;2023-02-01T00:50:05;21.55;;;4.10;;
31210;SDS011;17836;50.948;3.946;2023-02-01T00:52:31;20.80;;;5.22;;
31210;SDS011;17836;50.948;3.946;2023-02-01T00:54:56;19.27;;;4.07;;
31210;SDS011;17836;50.948;3.946;2023-02-01T00:57:21;22.98;;;4.68;;
31210;SDS011;17836;50.948;3.946;2023-02-01T00:59:47;20.90;;;4.75;;
31210;SDS011;17836;50.948;3.946;2023-02-01T01:02:12;19.30;;;5.77;;
31210;SDS011;17836;50.948;3.946;2023-02-01T01:04:39;15.52;;;4.18;;
31210;SDS011;17836;50.948;3.946;2023-02-01T01:07:04;20.95;;;4.68;;
31210;SDS011;17836;50.948;3.946;2023-02-01T01:09:29;20.43;;;4.30;;
31210;SDS011;17836;50.948;3.946;2023-02-01T01:11:55;15.73;;;4.65;;
31210;SDS011;17836;50.948;3.946;2023-02-01T01:14:20;12.18;;;4.00;;
31210;SDS011;17836;50.948;3.946;2023-02-01T01:16:45;18.13;;;4.40;;
31210;SDS011;17836;50.948;3.946;2023-02-01T01:19:11;14.63;;;4.28;;
31210;SDS011;17836;50.948;3.946;2023-02-01T01:21:36;13.30;;;4.13;;
31210;SDS011;17836;50.948;3.946;2023-02-01T01:24:01;18.17;;;4.18;;
31210;SDS011;17836;50.948;3.946;2023-02-01T01:26:28;15.38;;;3.92;;
31210;SDS011;17836;50.948;3.946;2023-02-01T01:28:54;11.45;;;4.30;;
31210;SDS011;17836;50.948;3.946;2023-02-01T01:31:20;10.60;;;3.60;;
31210;SDS011;17836;50.948;3.946;2023-02-01T01:33:50;17.40;;;4.38;;
31210;SDS011;17836;50.948;3.946;2023-02-01T01:36:16;20.02;;;4.03;;
31210;SDS011;17836;50.948;3.946;2023-02-01T01:38:42;19.88;;;5.68;;
31210;SDS011;17836;50.948;3.946;2023-02-01T01:41:08;19.73;;;4.90;;
31210;SDS011;17836;50.948;3.946;2023-02-01T01:46:24;11.50;;;3.58;;
31210;SDS011;17836;50.948;3.946;2023-02-01T01:48:56;13.57;;;3.80;;
31210;SDS011;17836;50.948;3.946;2023-02-01T01:53:48;14.93;;;4.53;;
31210;SDS011;17836;50.948;3.946;2023-02-01T01:56:16;17.25;;;4.32;;
31210;SDS011;17836;50.948;3.946;2023-02-01T01:58:42;14.60;;;5.15;;
31210;SDS011;17836;50.948;3.946;2023-02-01T02:01:07;13.23;;;4.47;;
31210;SDS011;17836;50.948;3.946;2023-02-01T02:03:35;16.38;;;4.63;;
31210;SDS011;17836;50.948;3.946;2023-02-01T02:06:02;19.38;;;5.47;;
31210;SDS011;17836;50.948;3.946;2023-02-01T02:08:29;21.30;;;5.88;;
31210;SDS011;17836;50.948;3.946;2023-02-01T02:10:54;20.70;;;5.07;;
31210;SDS011;17836;50.948;3.946;2023-02-01T02:13:48;20.98;;;4.70;;
31210;SDS011;17836;50.948;3.946;2023-02-01T02:23:44;19.67;;;4.60;;
31210;SDS011;17836;50.948;3.946;2023-02-01T02:29:07;15.10;;;5.63;;
31210;SDS011;17836;50.948;3.946;2023-02-01T02:37:09;15.55;;;4.80;;
31210;SDS011;17836;50.948;3.946;2023-02-01T02:53:00;25.90;;;5.32;;
31210;SDS011;17836;50.948;3.946;2023-02-01T02:55:46;27.38;;;5.78;;
31210;SDS011;17836;50.948;3.946;2023-02-01T02:58:12;15.23;;;3.80;;
31210;SDS011;17836;50.948;3.946;2023-02-01T03:00:56;24.48;;;5.22;;
31210;SDS011;17836;50.948;3.946;2023-02-01T03:03:40;20.05;;;4.47;;
31210;SDS011;17836;50.948;3.946;2023-02-01T03:06:24;22.65;;;5.88;;
31210;SDS011;17836;50.948;3.946;2023-02-01T03:08:50;13.15;;;4.25;;
31210;SDS011;17836;50.948;3.946;2023-02-01T03:11:18;15.73;;;5.15;;
31210;SDS011;17836;50.948;3.946;2023-02-01T03:13:57;25.80;;;5.35;;
31210;SDS011;17836;50.948;3.946;2023-02-01T03:16:32;19.70;;;4.97;;
31210;SDS011;17836;50.948;3.946;2023-02-01T03:21:50;19.02;;;4.97;;
31210;SDS011;17836;50.948;3.946;2023-02-01T03:24:20;20.08;;;4.32;;
31210;SDS011;17836;50.948;3.946;2023-02-01T03:26:49;22.05;;;5.00;;
31210;SDS011;17836;50.948;3.946;2023-02-01T03:29:17;27.10;;;5.32;;
31210;SDS011;17836;50.948;3.946;2023-02-01T03:31:43;19.63;;;4.00;;
31210;SDS011;17836;50.948;3.946;2023-02-01T03:34:10;21.98;;;5.28;;
31210;SDS011;17836;50.948;3.946;2023-02-01T03:36:40;26.75;;;4.63;;
31210;SDS011;17836;50.948;3.946;2023-02-01T03:39:10;22.95;;;4.18;;
31210;SDS011;17836;50.948;3.946;2023-02-01T03:41:47;22.40;;;4.95;;
31210;SDS011;17836;50.948;3.946;2023-02-01T03:44:15;21.58;;;5.03;;
31210;SDS011;17836;50.948;3.946;2023-02-01T03:47:02;18.00;;;4.00;;
31210;SDS011;17836;50.948;3.946;2023-02-01T03:49:29;26.95;;;5.60;;
31210;SDS011;17836;50.948;3.946;2023-02-01T03:51:56;29.50;;;5.55;;
31210;SDS011;17836;50.948;3.946;2023-02-01T03:54:22;15.18;;;5.28;;
31210;SDS011;17836;50.948;3.946;2023-02-01T03:56:48;26.05;;;5.13;;
31210;SDS011;17836;50.948;3.946;2023-02-01T03:59:15;16.48;;;5.28;;
31210;SDS011;17836;50.948;3.946;2023-02-01T04:01:40;23.83;;;5.43;;
31210;SDS011;17836;50.948;3.946;2023-02-01T04:04:05;21.02;;;4.30;;
31210;SDS011;17836;50.948;3.946;2023-02-01T04:06:31;27.20;;;5.93;;
31210;SDS011;17836;50.948;3.946;2023-02-01T04:08:56;20.15;;;4.55;;
31210;SDS011;17836;50.948;3.946;2023-02-01T04:11:21;16.58;;;4.35;;
31210;SDS011;17836;50.948;3.946;2023-02-01T04:13:49;25.40;;;5.65;;
31210;SDS011;17836;50.948;3.946;2023-02-01T04:16:14;20.27;;;4.40;;
31210;SDS011;17836;50.948;3.946;2023-02-01T04:18:39;9.50;;;4.70;;
31210;SDS011;17836;50.948;3.946;2023-02-01T04:21:04;18.08;;;4.15;;
31210;SDS011;17836;50.948;3.946;2023-02-01T04:23:30;25.58;;;5.22;;
31210;SDS011;17836;50.948;3.946;2023-02-01T04:26:00;20.40;;;4.50;;
31210;SDS011;17836;50.948;3.946;2023-02-01T04:28:26;18.23;;;4.18;;
31210;SDS011;17836;50.948;3.946;2023-02-01T04:30:51;22.00;;;4.60;;
31210;SDS011;17836;50.948;3.946;2023-02-01T04:33:16;20.00;;;4.97;;
31210;SDS011;17836;50.948;3.946;2023-02-01T04:35:42;26.87;;;6.23;;
31210;SDS011;17836;50.948;3.946;2023-02-01T04:38:07;15.10;;;4.22;;
31210;SDS011;17836;50.948;3.946;2023-02-01T04:40:32;20.80;;;4.77;;
31210;SDS011;17836;50.948;3.946;2023-02-01T04:42:58;30.77;;;6.20;;
31210;SDS011;17836;50.948;3.946;2023-02-01T04:45:23;31.02;;;5.10;;
31210;SDS011;17836;50.948;3.946;2023-02-01T04:47:48;20.75;;;4.75;;
31210;SDS011;17836;50.948;3.946;2023-02-01T04:50:13;26.10;;;4.43;;
31210;SDS011;17836;50.948;3.946;2023-02-01T04:52:39;14.95;;;3.85;;
31210;SDS011;17836;50.948;3.946;2023-02-01T04:55:05;27.20;;;4.35;;
31210;SDS011;17836;50.948;3.946;2023-02-01T04:57:30;21.77;;;3.88;;
31210;SDS011;17836;50.948;3.946;2023-02-01T04:59:56;20.83;;;5.20;;
31210;SDS011;17836;50.948;3.946;2023-02-01T05:02:21;25.05;;;4.78;;
31210;SDS011;17836;50.948;3.946;2023-02-01T05:04:46;20.93;;;3.67;;
31210;SDS011;17836;50.948;3.946;2023-02-01T05:07:12;17.50;;;3.83;;
31210;SDS011;17836;50.948;3.946;2023-02-01T05:09:37;19.10;;;4.38;;
31210;SDS011;17836;50.948;3.946;2023-02-01T05:12:02;16.13;;;4.83;;
31210;SDS011;17836;50.948;3.946;2023-02-01T05:14:46;25.95;;;4.63;;
31210;SDS011;17836;50.948;3.946;2023-02-01T05:17:12;24.38;;;5.28;;
31210;SDS011;17836;50.948;3.946;2023-02-01T05:19:38;29.30;;;5.10;;
31210;SDS011;17836;50.948;3.946;2023-02-01T05:22:03;24.13;;;4.60;;
31210;SDS011;17836;50.948;3.946;2023-02-01T05:24:28;23.60;;;4.85;;
31210;SDS011;17836;50.948;3.946;2023-02-01T05:26:53;17.20;;;4.00;;
31210;SDS011;17836;50.948;3.946;2023-02-01T05:29:19;19.05;;;5.22;;
31210;SDS011;17836;50.948;3.946;2023-02-01T05:31:44;14.82;;;4.53;;
31210;SDS011;17836;50.948;3.946;2023-02-01T05:34:10;20.73;;;5.18;;
31210;SDS011;17836;50.948;3.946;2023-02-01T05:36:36;22.52;;;4.75;;
31210;SDS011;17836;50.948;3.946;2023-02-01T05:39:01;27.10;;;5.25;;
31210;SDS011;17836;50.948;3.946;2023-02-01T05:41:26;32.65;;;6.07;;
31210;SDS011;17836;50.948;3.946;2023-02-01T05:43:52;21.30;;;4.20;;
31210;SDS011;17836;50.948;3.946;2023-02-01T05:46:17;20.83;;;4.07;;
31210;SDS011;17836;50.948;3.946;2023-02-01T05:48:43;26.98;;;4.88;;
31210;SDS011;17836;50.948;3.946;2023-02-01T05:51:08;23.93;;;4.00;;
31210;SDS011;17836;50.948;3.946;2023-02-01T05:53:34;24.58;;;4.93;;
31210;SDS011;17836;50.948;3.946;2023-02-01T05:55:59;24.63;;;5.18;;
31210;SDS011;17836;50.948;3.946;2023-02-01T05:58:25;19.08;;;3.97;;
31210;SDS011;17836;50.948;3.946;2023-02-01T06:00:50;19.35;;;4.40;;
31210;SDS011;17836;50.948;3.946;2023-02-01T06:03:15;20.98;;;4.10;;
31210;SDS011;17836;50.948;3.946;2023-02-01T06:05:43;22.80;;;4.10;;
31210;SDS011;17836;50.948;3.946;2023-02-01T06:08:08;22.77;;;4.28;;
31210;SDS011;17836;50.948;3.946;2023-02-01T06:10:33;17.67;;;4.10;;
31210;SDS011;17836;50.948;3.946;2023-02-01T06:12:59;20.17;;;5.00;;
31210;SDS011;17836;50.948;3.946;2023-02-01T06:15:24;21.98;;;4.30;;
31210;SDS011;17836;50.948;3.946;2023-02-01T06:17:49;20.87;;;3.83;;
31210;SDS011;17836;50.948;3.946;2023-02-01T06:20:15;21.10;;;4.90;;
31210;SDS011;17836;50.948;3.946;2023-02-01T06:22:40;14.27;;;4.90;;
31210;SDS011;17836;50.948;3.946;2023-02-01T06:25:08;25.40;;;4.43;;
31210;SDS011;17836;50.948;3.946;2023-02-01T06:27:34;15.50;;;3.95;;
31210;SDS011;17836;50.948;3.946;2023-02-01T06:30:00;29.42;;;4.28;;
31210;SDS011;17836;50.948;3.946;2023-02-01T06:32:25;18.80;;;4.60;;
31210;SDS011;17836;50.948;3.946;2023-02-01T06:34:51;20.08;;;4.10;;
31210;SDS011;17836;50.948;3.946;2023-02-01T06:37:20;18.58;;;4.28;;
31210;SDS011;17836;50.948;3.946;2023-02-01T06:39:46;22.70;;;5.22;;
31210;SDS011;17836;50.948;3.946;2023-02-01T06:42:12;12.27;;;4.03;;
31210;SDS011;17836;50.948;3.946;2023-02-01T06:44:37;19.45;;;4.15;;
31210;SDS011;17836;50.948;3.946;2023-02-01T06:47:03;23.87;;;5.10;;
31210;SDS011;17836;50.948;3.946;2023-02-01T06:49:29;21.95;;;4.78;;
31210;SDS011;17836;50.948;3.946;2023-02-01T06:51:55;15.70;;;3.60;;
31210;SDS011;17836;50.948;3.946;2023-02-01T06:54:20;20.65;;;4.30;;
31210;SDS011;17836;50.948;3.946;2023-02-01T06:56:45;18.03;;;5.07;;
31210;SDS011;17836;50.948;3.946;2023-02-01T06:59:11;19.13;;;5.90;;
31210;SDS011;17836;50.948;3.946;2023-02-01T07:01:36;13.95;;;4.90;;
31210;SDS011;17836;50.948;3.946;2023-02-01T07:04:02;16.23;;;4.47;;
31210;SDS011;17836;50.948;3.946;2023-02-01T07:06:27;23.60;;;4.38;;
31210;SDS011;17836;50.948;3.946;2023-02-01T07:08:52;20.35;;;4.40;;
31210;SDS011;17836;50.948;3.946;2023-02-01T07:11:20;19.02;;;4.75;;
31210;SDS011;17836;50.948;3.946;2023-02-01T07:13:46;21.95;;;4.68;;
31210;SDS011;17836;50.948;3.946;2023-02-01T07:16:15;23.42;;;6.10;;
31210;SDS011;17836;50.948;3.946;2023-02-01T07:18:41;21.33;;;5.65;;
31210;SDS011;17836;50.948;3.946;2023-02-01T07:21:06;18.33;;;4.28;;
31210;SDS011;17836;50.948;3.946;2023-02-01T07:23:32;18.55;;;5.40;;
31210;SDS011;17836;50.948;3.946;2023-02-01T07:26:02;22.40;;;6.65;;
31210;SDS011;17836;50.948;3.946;2023-02-01T07:28:29;19.27;;;4.60;;
31210;SDS011;17836;50.948;3.946;2023-02-01T07:30:55;20.38;;;5.13;;
31210;SDS011;17836;50.948;3.946;2023-02-01T07:33:20;14.87;;;5.00;;
31210;SDS011;17836;50.948;3.946;2023-02-01T07:35:46;19.85;;;4.22;;
31210;SDS011;17836;50.948;3.946;2023-02-01T07:38:11;14.48;;;3.95;;
31210;SDS011;17836;50.948;3.946;2023-02-01T07:40:36;29.97;;;5.27;;
31210;SDS011;17836;50.948;3.946;2023-02-01T07:43:02;20.13;;;4.90;;
31210;SDS011;17836;50.948;3.946;2023-02-01T07:45:27;25.42;;;4.68;;
31210;SDS011;17836;50.948;3.946;2023-02-01T07:47:53;21.35;;;4.30;;
31210;SDS011;17836;50.948;3.946;2023-02-01T07:50:18;29.33;;;5.65;;
31210;SDS011;17836;50.948;3.946;2023-02-01T07:52:44;17.55;;;4.38;;
31210;SDS011;17836;50.948;3.946;2023-02-01T07:55:09;20.42;;;4.78;;
31210;SDS011;17836;50.948;3.946;2023-02-01T07:57:34;24.70;;;5.22;;
31210;SDS011;17836;50.948;3.946;2023-02-01T07:59:59;18.63;;;5.63;;
31210;SDS011;17836;50.948;3.946;2023-02-01T08:02:43;22.13;;;4.45;;
31210;SDS011;17836;50.948;3.946;2023-02-01T08:05:09;25.10;;;4.88;;
31210;SDS011;17836;50.948;3.946;2023-02-01T08:07:35;23.98;;;4.28;;
31210;SDS011;17836;50.948;3.946;2023-02-01T08:10:00;16.53;;;5.10;;
31210;SDS011;17836;50.948;3.946;2023-02-01T08:12:26;20.63;;;4.55;;
31210;SDS011;17836;50.948;3.946;2023-02-01T08:14:52;22.77;;;4.72;;
31210;SDS011;17836;50.948;3.946;2023-02-01T08:17:18;17.88;;;4.50;;
31210;SDS011;17836;50.948;3.946;2023-02-01T08:19:43;26.92;;;5.43;;
31210;SDS011;17836;50.948;3.946;2023-02-01T08:22:10;15.18;;;5.05;;
31210;SDS011;17836;50.948;3.946;2023-02-01T08:24:35;20.95;;;5.00;;
31210;SDS011;17836;50.948;3.946;2023-02-01T08:27:02;17.30;;;4.07;;
31210;SDS011;17836;50.948;3.946;2023-02-01T08:29:28;14.88;;;4.28;;
31210;SDS011;17836;50.948;3.946;2023-02-01T08:31:53;20.50;;;4.87;;
31210;SDS011;17836;50.948;3.946;2023-02-01T08:34:19;24.02;;;5.35;;
31210;SDS011;17836;50.948;3.946;2023-02-01T08:36:44;22.73;;;5.50;;
31210;SDS011;17836;50.948;3.946;2023-02-01T08:39:10;22.83;;;5.43;;
31210;SDS011;17836;50.948;3.946;2023-02-01T08:41:37;27.60;;;4.65;;
31210;SDS011;17836;50.948;3.946;2023-02-01T08:44:02;21.90;;;4.40;;
31210;SDS011;17836;50.948;3.946;2023-02-01T08:46:28;16.30;;;4.18;;
31210;SDS011;17836;50.948;3.946;2023-02-01T08:48:53;22.13;;;5.25;;
31210;SDS011;17836;50.948;3.946;2023-02-01T08:51:19;23.80;;;6.37;;
31210;SDS011;17836;50.948;3.946;2023-02-01T08:53:44;15.77;;;4.30;;
31210;SDS011;17836;50.948;3.946;2023-02-01T08:56:11;13.77;;;4.40;;
31210;SDS011;17836;50.948;3.946;2023-02-01T08:58:36;20.52;;;5.47;;
31210;SDS011;17836;50.948;3.946;2023-02-01T09:01:02;13.52;;;4.88;;
31210;SDS011;17836;50.948;3.946;2023-02-01T09:03:28;20.67;;;6.22;;
31210;SDS011;17836;50.948;3.946;2023-02-01T09:05:59;20.67;;;6.33;;
31210;SDS011;17836;50.948;3.946;2023-02-01T09:08:24;15.48;;;4.60;;
31210;SDS011;17836;50.948;3.946;2023-02-01T09:10:49;27.25;;;7.03;;
31210;SDS011;17836;50.948;3.946;2023-02-01T09:13:14;18.20;;;4.27;;
31210;SDS011;17836;50.948;3.946;2023-02-01T09:15:40;16.63;;;4.35;;
31210;SDS011;17836;50.948;3.946;2023-02-01T09:18:05;18.63;;;5.55;;
31210;SDS011;17836;50.948;3.946;2023-02-01T09:20:31;21.10;;;4.97;;
31210;SDS011;17836;50.948;3.946;2023-02-01T09:22:56;18.73;;;4.27;;
31210;SDS011;17836;50.948;3.946;2023-02-01T09:25:21;15.52;;;4.05;;
31210;SDS011;17836;50.948;3.946;2023-02-01T09:27:46;27.00;;;4.43;;
31210;SDS011;17836;50.948;3.946;2023-02-01T09:30:12;18.33;;;3.97;;
31210;SDS011;17836;50.948;3.946;2023-02-01T09:32:37;20.10;;;3.90;;
31210;SDS011;17836;50.948;3.946;2023-02-01T09:35:03;19.20;;;3.88;;
31210;SDS011;17836;50.948;3.946;2023-02-01T09:37:29;15.88;;;3.97;;
31210;SDS011;17836;50.948;3.946;2023-02-01T09:39:54;16.35;;;4.32;;
31210;SDS011;17836;50.948;3.946;2023-02-01T09:42:21;26.90;;;4.20;;
31210;SDS011;17836;50.948;3.946;2023-02-01T09:47:16;12.35;;;3.00;;
31210;SDS011;17836;50.948;3.946;2023-02-01T09:49:53;19.75;;;4.35;;
31210;SDS011;17836;50.948;3.946;2023-02-01T09:52:23;22.02;;;4.55;;
31210;SDS011;17836;50.948;3.946;2023-02-01T09:55:02;17.10;;;4.80;;
31210;SDS011;17836;50.948;3.946;2023-02-01T09:57:51;16.75;;;3.60;;
31210;SDS011;17836;50.948;3.946;2023-02-01T10:00:28;20.02;;;4.57;;
31210;SDS011;17836;50.948;3.946;2023-02-01T10:02:54;26.38;;;6.05;;
31210;SDS011;17836;50.948;3.946;2023-02-01T10:05:43;13.27;;;3.45;;
31210;SDS011;17836;50.948;3.946;2023-02-01T10:10:51;16.90;;;3.47;;
31210;SDS011;17836;50.948;3.946;2023-02-01T10:28:37;13.38;;;3.47;;
31210;SDS011;17836;50.948;3.946;2023-02-01T10:31:03;16.33;;;4.47;;
31210;SDS011;17836;50.948;3.946;2023-02-01T10:33:32;18.08;;;3.80;;
31210;SDS011;17836;50.948;3.946;2023-02-01T10:38:31;15.45;;;3.20;;
31210;SDS011;17836;50.948;3.946;2023-02-01T10:41:00;13.95;;;3.13;;
31210;SDS011;17836;50.948;3.946;2023-02-01T10:43:27;13.02;;;2.85;;
31210;SDS011;17836;50.948;3.946;2023-02-01T10:45:52;14.18;;;4.30;;
31210;SDS011;17836;50.948;3.946;2023-02-01T10:48:17;9.43;;;2.97;;
31210;SDS011;17836;50.948;3.946;2023-02-01T10:50:51;22.05;;;3.35;;
31210;SDS011;17836;50.948;3.946;2023-02-01T10:53:20;11.73;;;3.22;;
31210;SDS011;17836;50.948;3.946;2023-02-01T10:55:48;19.33;;;3.45;;
31210;SDS011;17836;50.948;3.946;2023-02-01T10:58:25;14.20;;;2.97;;
31210;SDS011;17836;50.948;3.946;2023-02-01T11:03:27;10.25;;;3.00;;
31210;SDS011;17836;50.948;3.946;2023-02-01T11:05:55;15.32;;;4.18;;
31210;SDS011;17836;50.948;3.946;2023-02-01T11:08:21;13.88;;;3.25;;
31210;SDS011;17836;50.948;3.946;2023-02-01T11:10:46;10.82;;;2.90;;
31210;SDS011;17836;50.948;3.946;2023-02-01T11:13:16;11.20;;;2.95;;
31210;SDS011;17836;50.948;3.946;2023-02-01T11:15:43;10.27;;;2.57;;
31210;SDS011;17836;50.948;3.946;2023-02-01T11:18:18;10.65;;;2.88;;
31210;SDS011;17836;50.948;3.946;2023-02-01T11:20:45;14.25;;;3.65;;
31210;SDS011;17836;50.948;3.946;2023-02-01T11:23:24;9.25;;;2.53;;
31210;SDS011;17836;50.948;3.946;2023-02-01T11:25:54;10.98;;;2.97;;
31210;SDS011;17836;50.948;3.946;2023-02-01T11:28:20;16.95;;;4.32;;
31210;SDS011;17836;50.948;3.946;2023-02-01T11:30:46;7.88;;;2.17;;
31210;SDS011;17836;50.948;3.946;2023-02-01T11:33:17;12.55;;;2.47;;
31210;SDS011;17836;50.948;3.946;2023-02-01T11:38:27;10.65;;;2.28;;
31210;SDS011;17836;50.948;3.946;2023-02-01T11:40:54;11.57;;;2.05;;
31210;SDS011;17836;50.948;3.946;2023-02-01T11:43:23;13.20;;;2.97;;
31210;SDS011;17836;50.948;3.946;2023-02-01T11:45:57;13.18;;;2.92;;
31210;SDS011;17836;50.948;3.946;2023-02-01T11:48:23;10.38;;;2.35;;
31210;SDS011;17836;50.948;3.946;2023-02-01T12:00:44;7.73;;;2.10;;
31210;SDS011;17836;50.948;3.946;2023-02-01T12:08:37;13.38;;;2.55;;
31210;SDS011;17836;50.948;3.946;2023-02-01T12:11:13;10.70;;;1.85;;
31210;SDS011;17836;50.948;3.946;2023-02-01T12:16:23;11.37;;;2.53;;
31210;SDS011;17836;50.948;3.946;2023-02-01T12:19:06;7.43;;;1.83;;
31210;SDS011;17836;50.948;3.946;2023-02-01T12:21:40;10.23;;;2.30;;
31210;SDS011;17836;50.948;3.946;2023-02-01T12:37:04;6.75;;;1.75;;
31210;SDS011;17836;50.948;3.946;2023-02-01T12:39:32;6.82;;;1.30;;
31210;SDS011;17836;50.948;3.946;2023-02-01T12:42:08;11.73;;;2.30;;
31210;SDS011;17836;50.948;3.946;2023-02-01T12:47:21;6.53;;;2.22;;
31210;SDS011;17836;50.948;3.946;2023-02-01T12:52:19;8.77;;;1.55;;
31210;SDS011;17836;50.948;3.946;2023-02-01T12:55:32;6.10;;;2.47;;
31210;SDS011;17836;50.948;3.946;2023-02-01T12:57:37;11.40;;;2.67;;
31210;SDS011;17836;50.948;3.946;2023-02-01T13:00:18;7.22;;;1.17;;
31210;SDS011;17836;50.948;3.946;2023-02-01T13:02:50;11.00;;;2.60;;
31210;SDS011;17836;50.948;3.946;2023-02-01T13:05:18;6.72;;;2.10;;
31210;SDS011;17836;50.948;3.946;2023-02-01T13:08:02;7.65;;;2.10;;
31210;SDS011;17836;50.948;3.946;2023-02-01T13:10:30;12.68;;;2.42;;
31210;SDS011;17836;50.948;3.946;2023-02-01T13:12:59;9.15;;;2.50;;
31210;SDS011;17836;50.948;3.946;2023-02-01T13:15:31;8.27;;;2.35;;
31210;SDS011;17836;50.948;3.946;2023-02-01T13:18:00;8.27;;;2.70;;
31210;SDS011;17836;50.948;3.946;2023-02-01T13:20:34;8.55;;;2.15;;
31210;SDS011;17836;50.948;3.946;2023-02-01T13:23:22;8.68;;;1.67;;
31210;SDS011;17836;50.948;3.946;2023-02-01T13:25:52;13.23;;;2.38;;
31210;SDS011;17836;50.948;3.946;2023-02-01T13:28:24;6.25;;;2.00;;
31210;SDS011;17836;50.948;3.946;2023-02-01T13:31:06;7.03;;;1.50;;
31210;SDS011;17836;50.948;3.946;2023-02-01T13:39:24;10.48;;;2.28;;
31210;SDS011;17836;50.948;3.946;2023-02-01T13:41:54;9.90;;;2.72;;
31210;SDS011;17836;50.948;3.946;2023-02-01T13:47:20;7.35;;;2.47;;
31210;SDS011;17836;50.948;3.946;2023-02-01T13:49:50;8.45;;;1.80;;
31210;SDS011;17836;50.948;3.946;2023-02-01T13:52:37;6.93;;;1.80;;
31210;SDS011;17836;50.948;3.946;2023-02-01T13:57:38;9.15;;;2.17;;
31210;SDS011;17836;50.948;3.946;2023-02-01T14:00:06;8.20;;;2.80;;
31210;SDS011;17836;50.948;3.946;2023-02-01T14:03:15;11.02;;;1.75;;
31210;SDS011;17836;50.948;3.946;2023-02-01T14:08:07;11.98;;;2.30;;
31210;SDS011;17836;50.948;3.946;2023-02-01T14:21:17;6.30;;;2.30;;
31210;SDS011;17836;50.948;3.946;2023-02-01T14:31:44;7.32;;;2.47;;
31210;SDS011;17836;50.948;3.946;2023-02-01T14:34:12;6.35;;;2.10;;
31210;SDS011;17836;50.948;3.946;2023-02-01T14:36:39;9.60;;;2.38;;
31210;SDS011;17836;50.948;3.946;2023-02-01T14:39:17;9.23;;;2.83;;
31210;SDS011;17836;50.948;3.946;2023-02-01T14:41:43;14.63;;;2.78;;
31210;SDS011;17836;50.948;3.946;2023-02-01T14:47:34;13.33;;;2.87;;
31210;SDS011;17836;50.948;3.946;2023-02-01T14:49:30;11.50;;;2.70;;
31210;SDS011;17836;50.948;3.946;2023-02-01T14:51:57;13.05;;;2.45;;
31210;SDS011;17836;50.948;3.946;2023-02-01T14:54:23;15.68;;;3.50;;
31210;SDS011;17836;50.948;3.946;2023-02-01T14:56:48;17.75;;;2.50;;
31210;SDS011;17836;50.948;3.946;2023-02-01T14:59:16;15.90;;;3.33;;
31210;SDS011;17836;50.948;3.946;2023-02-01T15:01:49;13.25;;;2.45;;
31210;SDS011;17836;50.948;3.946;2023-02-01T15:04:16;11.80;;;2.15;;
31210;SDS011;17836;50.948;3.946;2023-02-01T15:14:19;7.07;;;2.45;;
31210;SDS011;17836;50.948;3.946;2023-02-01T15:16:44;8.50;;;2.27;;
31210;SDS011;17836;50.948;3.946;2023-02-01T15:19:15;8.55;;;2.55;;
31210;SDS011;17836;50.948;3.946;2023-02-01T15:21:44;13.05;;;2.33;;
31210;SDS011;17836;50.948;3.946;2023-02-01T15:24:14;13.98;;;2.65;;
31210;SDS011;17836;50.948;3.946;2023-02-01T15:26:43;12.98;;;2.35;;
31210;SDS011;17836;50.948;3.946;2023-02-01T15:29:10;17.10;;;2.90;;
31210;SDS011;17836;50.948;3.946;2023-02-01T15:31:45;9.88;;;2.70;;
31210;SDS011;17836;50.948;3.946;2023-02-01T15:34:11;9.02;;;3.30;;
31210;SDS011;17836;50.948;3.946;2023-02-01T15:36:37;11.40;;;2.50;;
31210;SDS011;17836;50.948;3.946;2023-02-01T15:39:14;19.42;;;2.78;;
31210;SDS011;17836;50.948;3.946;2023-02-01T15:41:45;12.45;;;2.60;;
31210;SDS011;17836;50.948;3.946;2023-02-01T15:44:19;9.38;;;2.58;;
31210;SDS011;17836;50.948;3.946;2023-02-01T15:46:45;12.80;;;3.33;;
31210;SDS011;17836;50.948;3.946;2023-02-01T15:51:46;11.07;;;2.33;;
31210;SDS011;17836;50.948;3.946;2023-02-01T15:54:15;16.75;;;3.60;;
31210;SDS011;17836;50.948;3.946;2023-02-01T15:56:44;10.32;;;3.42;;
31210;SDS011;17836;50.948;3.946;2023-02-01T15:59:16;17.63;;;3.75;;
31210;SDS011;17836;50.948;3.946;2023-02-01T16:01:42;18.17;;;3.17;;
31210;SDS011;17836;50.948;3.946;2023-02-01T16:04:16;14.05;;;3.13;;
31210;SDS011;17836;50.948;3.946;2023-02-01T16:06:46;9.77;;;2.55;;
31210;SDS011;17836;50.948;3.946;2023-02-01T16:09:14;10.50;;;3.38;;
31210;SDS011;17836;50.948;3.946;2023-02-01T16:11:41;9.98;;;2.95;;
31210;SDS011;17836;50.948;3.946;2023-02-01T16:14:07;22.80;;;3.75;;
31210;SDS011;17836;50.948;3.946;2023-02-01T16:16:32;17.57;;;3.97;;
31210;SDS011;17836;50.948;3.946;2023-02-01T16:19:00;20.38;;;4.05;;
31210;SDS011;17836;50.948;3.946;2023-02-01T16:21:25;18.47;;;3.90;;
31210;SDS011;17836;50.948;3.946;2023-02-01T16:23:50;15.77;;;3.92;;
31210;SDS011;17836;50.948;3.946;2023-02-01T16:26:16;15.93;;;3.05;;
31210;SDS011;17836;50.948;3.946;2023-02-01T16:28:41;13.07;;;3.45;;
31210;SDS011;17836;50.948;3.946;2023-02-01T16:31:09;11.45;;;2.95;;
31210;SDS011;17836;50.948;3.946;2023-02-01T16:33:41;16.58;;;3.88;;
31210;SDS011;17836;50.948;3.946;2023-02-01T16:36:07;12.93;;;3.10;;
31210;SDS011;17836;50.948;3.946;2023-02-01T16:38:33;22.48;;;5.82;;
31210;SDS011;17836;50.948;3.946;2023-02-01T16:40:59;13.53;;;4.13;;
31210;SDS011;17836;50.948;3.946;2023-02-01T16:43:25;16.00;;;3.95;;
31210;SDS011;17836;50.948;3.946;2023-02-01T16:45:53;21.77;;;4.25;;
31210;SDS011;17836;50.948;3.946;2023-02-01T16:48:21;13.07;;;3.78;;
31210;SDS011;17836;50.948;3.946;2023-02-01T16:50:50;19.35;;;4.30;;
31210;SDS011;17836;50.948;3.946;2023-02-01T16:53:17;10.57;;;3.58;;
31210;SDS011;17836;50.948;3.946;2023-02-01T16:55:43;17.80;;;3.30;;
31210;SDS011;17836;50.948;3.946;2023-02-01T16:58:09;11.05;;;3.83;;
31210;SDS011;17836;50.948;3.946;2023-02-01T17:00:35;16.08;;;3.50;;
31210;SDS011;17836;50.948;3.946;2023-02-01T17:03:02;18.77;;;3.78;;
31210;SDS011;17836;50.948;3.946;2023-02-01T17:05:28;11.25;;;4.07;;
31210;SDS011;17836;50.948;3.946;2023-02-01T17:07:53;18.33;;;3.75;;